Aviation Digital Data Service (ADDS)

Output produced by METARs form (0629 UTC 02 August 2014)
found at http://www.aviationweather.gov/adds/metars/
 
KROW 020551Z 02003KT 10SM OVC080 22/19 A3019 RMK AO2 SLP165 T02220189 10239 20217 51007
KROW 020451Z 05003KT 10SM FEW080 OVC110 22/18 A3019 RMK AO2 SLP166 T02220183
KROW 020351Z 33003KT 10SM OVC075 23/18 A3019 RMK AO2 SLP167 T02280178
KROW 020251Z 31004KT 10SM OVC110 23/17 A3017 RMK AO2 SLP158 T02280172 53006
KROW 020151Z 29004KT 10SM SCT110 23/17 A3015 RMK AO2 SLP152 T02280172
KROW 020051Z 23006KT 10SM OVC080 24/17 A3014 RMK AO2 SLP151 T02390167
KROW 012351Z 23007KT 10SM SCT037 OVC080 24/17 A3015 RMK AO2 SLP151 T02440167 10250 20228 56010
KROW 012251Z 23009KT 10SM FEW033 OVC070 24/17 A3015 RMK AO2 SLP153 T02390172
KROW 012151Z 21005KT 10SM FEW031 BKN075 25/17 A3016 RMK AO2 SLP157 T02500172
KROW 012051Z 16007KT 10SM FEW025 BKN080 24/17 A3018 RMK AO2 SLP164 T02440172 58014
KROW 011951Z 13007KT 10SM FEW026 BKN050 OVC070 24/17 A3020 RMK AO2 SLP167 T02440172
KROW 011851Z 16006KT 10SM FEW026 BKN055 OVC070 24/17 A3021 RMK AO2 SLP171 T02390167
KROW 011751Z 11007KT 10SM OVC042 23/17 A3023 RMK AO2 SLP178 T02280172 10228 20189 50003
KROW 011651Z 10007KT 10SM SCT030 OVC036 22/17 A3023 RMK AO2 SLP179 T02220172
KROW 011551Z 05004KT 10SM FEW055 OVC100 21/18 A3023 RMK AO2 SLP178 T02110178
KROW 011451Z 02007KT 10SM OVC070 21/17 A3022 RMK AO2 SLP176 T02110172 51012
KROW 011351Z 36007KT 10SM SCT070 BKN090 20/18 A3022 RMK AO2 SLP175 T02000178
KROW 011251Z 36004KT 10SM SCT009 BKN090 19/17 A3020 RMK AO2 SLP170 T01940172
KROW 011243Z 02006KT 10SM SCT007 BKN090 19/18 A3020 RMK AO2 T01940178
KROW 011151Z 03005KT 10SM SCT085 SCT110 20/18 A3018 RMK AO2 RAE1052 SLP160 P0000 60029 70029 T02000178 10233 20189 55004
KROW 011051Z AUTO 29005KT 10SM -RA SCT070 BKN085 OVC120 20/17 A3017 RMK AO2 SLP158 P0000 T02000172
KROW 010951Z AUTO 34008KT 10SM -RA BKN075 OVC090 19/18 A3018 RMK AO2 SLP159 P0001 T01940178
KROW 010851Z AUTO 01011KT 5SM RA BR SCT005 BKN043 OVC055 19/18 A3019 RMK AO2 WSHFT 0834 RAB11 SLP165 P0028 60028 T01890178 53005
KROW 010843Z AUTO 01011KT 3SM RA BR FEW005 BKN043 OVC050 19/18 A3019 RMK AO2 WSHFT 0745 RAB11 P0026 T01890178
KROW 010827Z AUTO 32013KT 2 1/2SM +RA BR BKN040 OVC055 19/18 A3019 RMK AO2 WSHFT 0745 RAB11 P0014 T01890178
KROW 010805Z AUTO 31017KT 10SM FEW030 BKN036 OVC049 21/17 A3019 RMK AO2 WSHFT 0745 LTG DSNT N AND SW T02110167
KROW 010751Z AUTO 31010G17KT 10SM BKN048 BKN065 OVC075 22/17 A3018 RMK AO2 SLP155 T02220172
KROW 010651Z AUTO 08003KT 10SM OVC080 23/18 A3017 RMK AO2 LTG DSNT SW-NW SLP153 T02280178 402890194
KROW 020531Z 0206/0306 04006KT P6SM SCT080 BKN110 
     FM020900 VRB06KT P6SM BKN025 
     FM021600 16007KT P6SM BKN035